Time;durP1;ratioP1;P1;durP2;ratioP2;P2;SDS_P1;SDS_P2;PMS_P1;PMS_P2;Temp;Humidity;BMP_temperature;BMP_pressure;BME280_temperature;BME280_humidity;BME280_pressure;Samples;Min_cycle;Max_cycle;Signal;HPM_P1;HPM_P2
2023/03/04 00:04:31;;;;;;;31.25;22.40;;;;;;;;;;10069322;28;20061;-67
2023/03/04 00:09:24;;;;;;;26.27;21.70;;;;;;;;;;10068385;28;20120;-67
2023/03/04 00:14:16;;;;;;;30.88;21.90;;;;;;;;;;10068473;28;20060;-67
2023/03/04 00:19:09;;;;;;;31.17;23.63;;;;;;;;;;10068530;28;20148;-66
2023/03/04 00:24:03;;;;;;;27.38;21.20;;;;;;;;;;10067665;28;20416;-67
2023/03/04 00:28:56;;;;;;;30.17;20.42;;;;;;;;;;10068006;28;20397;-66
2023/03/04 00:33:50;;;;;;;32.35;23.65;;;;;;;;;;10063712;28;20053;-67
2023/03/04 00:38:43;;;;;;;30.80;21.52;;;;;;;;;;10066524;28;20148;-66
2023/03/04 00:43:36;;;;;;;35.05;23.02;;;;;;;;;;10067711;28;20080;-66
2023/03/04 00:48:30;;;;;;;28.08;21.63;;;;;;;;;;10066515;28;20057;-66
2023/03/04 00:53:24;;;;;;;34.25;23.83;;;;;;;;;;10065271;28;20408;-66
2023/03/04 00:58:18;;;;;;;35.38;26.88;;;;;;;;;;10067077;28;20042;-67
2023/03/04 01:03:12;;;;;;;32.15;25.23;;;;;;;;;;10065591;28;20077;-66
2023/03/04 01:08:06;;;;;;;38.17;27.60;;;;;;;;;;10055243;28;20059;-67
2023/03/04 01:12:59;;;;;;;36.17;27.35;;;;;;;;;;10064932;28;20046;-66
2023/03/04 01:17:52;;;;;;;31.65;24.08;;;;;;;;;;10065972;28;20048;-66
2023/03/04 01:22:45;;;;;;;28.88;23.23;;;;;;;;;;10059997;28;20046;-66
2023/03/04 01:27:39;;;;;;;32.85;24.10;;;;;;;;;;10066161;28;20052;-66
2023/03/04 01:32:32;;;;;;;32.30;23.15;;;;;;;;;;10056021;28;20049;-66
2023/03/04 01:37:25;;;;;;;29.67;21.90;;;;;;;;;;10061367;28;20132;-69
2023/03/04 01:42:22;;;;;;;26.50;21.98;;;;;;;;;;10064178;28;20045;-67
2023/03/04 01:47:15;;;;;;;27.27;21.15;;;;;;;;;;10047789;28;20136;-67
2023/03/04 01:52:30;;;;;;;24.00;20.17;;;;;;;;;;10045709;28;20056;-66
2023/03/04 01:57:25;;;;;;;33.42;21.05;;;;;;;;;;10063393;28;20053;-67
2023/03/04 02:02:18;;;;;;;26.70;20.13;;;;;;;;;;10064340;28;20408;-67
2023/03/04 02:07:12;;;;;;;24.73;19.33;;;;;;;;;;10063715;28;20045;-67
2023/03/04 02:12:05;;;;;;;27.40;19.10;;;;;;;;;;10063816;28;20042;-67
2023/03/04 02:16:58;;;;;;;22.25;18.05;;;;;;;;;;10064727;28;20061;-67
2023/03/04 02:21:50;;;;;;;24.98;19.15;;;;;;;;;;10063527;28;20144;-66
2023/03/04 02:26:45;;;;;;;21.30;17.58;;;;;;;;;;10064769;28;20045;-66
2023/03/04 02:31:44;;;;;;;26.33;19.67;;;;;;;;;;10056472;28;20432;-66
2023/03/04 02:36:38;;;;;;;28.02;22.50;;;;;;;;;;10085456;28;20049;-65
2023/03/04 02:41:31;;;;;;;27.33;19.63;;;;;;;;;;10102998;28;20050;-66
2023/03/04 02:46:25;;;;;;;39.47;21.90;;;;;;;;;;10066050;28;20536;-65
2023/03/04 02:51:18;;;;;;;25.35;22.08;;;;;;;;;;10062093;28;20077;-65
2023/03/04 02:56:12;;;;;;;28.60;23.10;;;;;;;;;;10058921;28;20420;-65
2023/03/04 03:01:06;;;;;;;25.27;19.45;;;;;;;;;;10062844;28;20470;-65
2023/03/04 03:06:01;;;;;;;25.95;20.13;;;;;;;;;;10053229;28;20061;-66
2023/03/04 03:10:54;;;;;;;26.77;18.40;;;;;;;;;;10062875;28;20099;-66
2023/03/04 03:15:48;;;;;;;25.67;19.98;;;;;;;;;;10061099;28;20524;-67
2023/03/04 03:20:42;;;;;;;26.50;19.65;;;;;;;;;;10056084;28;20050;-68
2023/03/04 03:25:35;;;;;;;24.25;18.70;;;;;;;;;;10054825;28;20046;-68
2023/03/04 03:30:29;;;;;;;28.30;18.92;;;;;;;;;;10054726;28;20493;-67
2023/03/04 03:35:23;;;;;;;26.25;18.80;;;;;;;;;;10058765;28;20500;-67
2023/03/04 03:40:17;;;;;;;28.02;19.55;;;;;;;;;;10068704;28;20069;-67
2023/03/04 03:45:11;;;;;;;27.95;19.75;;;;;;;;;;10069608;28;20049;-67
2023/03/04 03:50:06;;;;;;;25.17;18.17;;;;;;;;;;10068914;28;20492;-67
2023/03/04 03:55:00;;;;;;;26.85;19.13;;;;;;;;;;10068591;28;20175;-66
2023/03/04 03:59:54;;;;;;;25.63;18.65;;;;;;;;;;10069333;28;20493;-67
2023/03/04 04:04:48;;;;;;;24.58;17.63;;;;;;;;;;10069377;28;20085;-67
2023/03/04 04:09:41;;;;;;;22.58;16.60;;;;;;;;;;10068147;28;20049;-67
2023/03/04 04:14:35;;;;;;;19.85;16.42;;;;;;;;;;10068103;28;20515;-67
2023/03/04 04:19:28;;;;;;;20.85;16.23;;;;;;;;;;10068728;28;20100;-67
2023/03/04 04:24:21;;;;;;;23.17;17.70;;;;;;;;;;10068511;28;20136;-67
2023/03/04 04:29:15;;;;;;;22.10;18.10;;;;;;;;;;10067888;28;20481;-67
2023/03/04 04:34:08;;;;;;;25.15;18.35;;;;;;;;;;10068379;28;20053;-67
2023/03/04 04:39:01;;;;;;;26.60;21.02;;;;;;;;;;10068092;28;20132;-67
2023/03/04 04:43:54;;;;;;;26.63;19.90;;;;;;;;;;10067525;28;20045;-67
2023/03/04 04:48:48;;;;;;;26.55;19.33;;;;;;;;;;10067135;28;20108;-67
2023/03/04 04:53:43;;;;;;;25.67;19.67;;;;;;;;;;10066276;28;20049;-66
2023/03/04 04:58:38;;;;;;;25.20;17.67;;;;;;;;;;10066402;28;20132;-67
2023/03/04 05:03:33;;;;;;;26.83;19.13;;;;;;;;;;10066149;28;20492;-66
2023/03/04 05:08:27;;;;;;;27.48;19.25;;;;;;;;;;10066569;28;20060;-67
2023/03/04 05:13:20;;;;;;;29.30;19.70;;;;;;;;;;10064189;28;20081;-67
2023/03/04 05:18:13;;;;;;;26.45;21.10;;;;;;;;;;10066673;28;20045;-67
2023/03/04 05:23:07;;;;;;;27.15;19.70;;;;;;;;;;10066506;28;20507;-67
2023/03/04 05:28:01;;;;;;;25.30;17.98;;;;;;;;;;10064911;28;20099;-66
2023/03/04 05:32:54;;;;;;;22.10;17.42;;;;;;;;;;10063721;28;20425;-67
2023/03/04 05:37:47;;;;;;;27.52;18.23;;;;;;;;;;10065998;28;20535;-68
2023/03/04 05:42:39;;;;;;;21.98;16.80;;;;;;;;;;10064941;28;20053;-68
2023/03/04 05:47:33;;;;;;;25.15;18.52;;;;;;;;;;10065619;28;20475;-67
2023/03/04 05:52:27;;;;;;;25.10;19.10;;;;;;;;;;10065728;28;20128;-67
2023/03/04 05:57:19;;;;;;;28.38;20.17;;;;;;;;;;10076752;28;20050;-67
2023/03/04 06:02:12;;;;;;;21.40;18.95;;;;;;;;;;10065178;28;20049;-67
2023/03/04 06:07:05;;;;;;;23.20;18.00;;;;;;;;;;10070722;28;20072;-69
2023/03/04 06:11:58;;;;;;;26.75;19.65;;;;;;;;;;10072710;28;20555;-67
2023/03/04 06:16:52;;;;;;;27.52;20.95;;;;;;;;;;10076682;28;20053;-67
2023/03/04 06:21:45;;;;;;;31.35;20.40;;;;;;;;;;10062642;28;20058;-68
2023/03/04 06:26:38;;;;;;;33.20;25.60;;;;;;;;;;10067770;28;20432;-65
2023/03/04 06:31:32;;;;;;;29.40;22.63;;;;;;;;;;10058127;28;20424;-68
2023/03/04 06:36:27;;;;;;;33.72;23.30;;;;;;;;;;10062238;28;20057;-66
2023/03/04 06:41:21;;;;;;;28.95;20.33;;;;;;;;;;10047918;28;20398;-67
2023/03/04 06:46:14;;;;;;;28.00;19.15;;;;;;;;;;10052941;28;20050;-68
2023/03/04 06:51:09;;;;;;;35.17;22.17;;;;;;;;;;10048976;28;20081;-66
2023/03/04 06:56:02;;;;;;;38.10;20.02;;;;;;;;;;10055615;28;20485;-69
2023/03/04 07:00:57;;;;;;;27.77;20.33;;;;;;;;;;10060557;28;20049;-68
2023/03/04 07:05:50;;;;;;;26.13;19.85;;;;;;;;;;10057557;28;20047;-67
2023/03/04 07:10:43;;;;;;;26.90;20.23;;;;;;;;;;10048464;28;20136;-67
2023/03/04 07:15:37;;;;;;;22.75;17.02;;;;;;;;;;10053280;28;20045;-68
2023/03/04 07:20:29;;;;;;;22.65;18.13;;;;;;;;;;10046084;28;20045;-67
2023/03/04 07:25:23;;;;;;;22.75;19.00;;;;;;;;;;10057194;28;20144;-67
2023/03/04 07:30:18;;;;;;;26.73;18.08;;;;;;;;;;10057795;28;20053;-67
2023/03/04 07:35:12;;;;;;;23.52;16.27;;;;;;;;;;10062204;28;20046;-68
2023/03/04 07:40:08;;;;;;;24.65;16.23;;;;;;;;;;10051125;28;20500;-68
2023/03/04 07:45:01;;;;;;;27.77;16.67;;;;;;;;;;10058804;28;20104;-66
2023/03/04 07:49:55;;;;;;;21.50;15.38;;;;;;;;;;10057288;28;20060;-63
2023/03/04 07:54:47;;;;;;;18.25;14.77;;;;;;;;;;10054607;28;20072;-66
2023/03/04 07:59:40;;;;;;;27.70;15.85;;;;;;;;;;10055577;28;20060;-66
2023/03/04 08:04:34;;;;;;;17.75;14.18;;;;;;;;;;10049098;28;20397;-67
2023/03/04 08:09:27;;;;;;;19.73;15.40;;;;;;;;;;10052501;28;20141;-67
2023/03/04 08:14:21;;;;;;;17.05;13.93;;;;;;;;;;10058138;28;20060;-68
2023/03/04 08:19:14;;;;;;;17.75;15.30;;;;;;;;;;10059440;28;20076;-65
2023/03/04 08:24:08;;;;;;;19.67;14.48;;;;;;;;;;10055706;28;20050;-64
2023/03/04 08:29:02;;;;;;;20.75;17.08;;;;;;;;;;10048018;28;20053;-65
2023/03/04 08:33:56;;;;;;;21.73;16.20;;;;;;;;;;10053756;28;20042;-72
2023/03/04 08:38:49;;;;;;;24.02;17.58;;;;;;;;;;10041709;28;20128;-67
2023/03/04 08:43:44;;;;;;;23.77;17.15;;;;;;;;;;10056430;28;20042;-69
2023/03/04 08:48:37;;;;;;;26.30;17.10;;;;;;;;;;10051632;28;20072;-68
2023/03/04 08:53:31;;;;;;;18.73;16.70;;;;;;;;;;10044975;28;20495;-71
2023/03/04 08:58:27;;;;;;;17.90;14.73;;;;;;;;;;10052271;28;20045;-73
2023/03/04 09:03:27;;;;;;;17.73;13.90;;;;;;;;;;10046272;28;20126;-70
2023/03/04 09:08:29;;;;;;;20.27;14.05;;;;;;;;;;10041070;28;20049;-67
2023/03/04 09:13:30;;;;;;;16.85;14.30;;;;;;;;;;10045039;28;20049;-74
2023/03/04 09:18:29;;;;;;;15.45;13.85;;;;;;;;;;10050480;28;20045;-71
2023/03/04 09:23:25;;;;;;;17.10;14.77;;;;;;;;;;10043160;28;20042;-70
2023/03/04 09:28:22;;;;;;;14.90;12.15;;;;;;;;;;10045960;28;20115;-70
2023/03/04 09:33:15;;;;;;;17.08;12.63;;;;;;;;;;10050766;28;20120;-69
2023/03/04 09:38:09;;;;;;;16.52;11.43;;;;;;;;;;10054915;28;20056;-72
2023/03/04 09:43:02;;;;;;;15.70;12.05;;;;;;;;;;10043278;28;20064;-70
2023/03/04 09:47:55;;;;;;;13.38;9.90;;;;;;;;;;10048088;28;20404;-71
2023/03/04 09:53:05;;;;;;;15.98;12.88;;;;;;;;;;10033721;28;20057;-69
2023/03/04 09:58:26;;;;;;;14.27;10.75;;;;;;;;;;10035828;28;20072;-71
2023/03/04 10:03:20;;;;;;;19.77;10.23;;;;;;;;;;10042611;28;20050;-76
2023/03/04 10:08:24;;;;;;;12.57;8.88;;;;;;;;;;10071020;28;20054;-76
2023/03/04 10:13:25;;;;;;;12.40;9.13;;;;;;;;;;10038964;28;20046;-68
2023/03/04 10:18:26;;;;;;;16.35;9.43;;;;;;;;;;10038790;28;20144;-70
2023/03/04 10:23:29;;;;;;;14.38;8.70;;;;;;;;;;10049246;28;20043;-69
2023/03/04 10:28:28;;;;;;;11.88;8.18;;;;;;;;;;10051053;28;20065;-71
2023/03/04 10:33:41;;;;;;;9.27;7.65;;;;;;;;;;10051944;28;20063;-66
2023/03/04 10:38:37;;;;;;;11.98;8.00;;;;;;;;;;10052898;28;20120;-66
2023/03/04 10:43:31;;;;;;;9.20;8.13;;;;;;;;;;10053203;28;20053;-68
2023/03/04 10:48:29;;;;;;;9.90;8.50;;;;;;;;;;10039139;28;20068;-66
2023/03/04 10:53:27;;;;;;;12.90;7.70;;;;;;;;;;10057373;28;20057;-66
2023/03/04 10:58:20;;;;;;;15.18;8.57;;;;;;;;;;10063777;28;20083;-66
2023/03/04 11:03:25;;;;;;;9.52;7.97;;;;;;;;;;10056854;28;20503;-66
2023/03/04 11:08:22;;;;;;;;;;;;;;;;;;10055468;28;20046;-65
2023/03/04 11:13:24;;;;;;;15.75;9.73;;;;;;;;;;10052625;28;20327;-68
2023/03/04 11:18:22;;;;;;;11.82;8.57;;;;;;;;;;10064773;28;20049;-66
2023/03/04 11:23:17;;;;;;;20.05;9.88;;;;;;;;;;10056910;28;20045;-66
2023/03/04 11:28:14;;;;;;;21.33;9.82;;;;;;;;;;10036564;28;20463;-66
2023/03/04 11:33:20;;;;;;;12.38;9.35;;;;;;;;;;10069666;28;20052;-66
2023/03/04 11:38:43;;;;;;;14.60;8.50;;;;;;;;;;10068570;28;20046;-66
2023/03/04 11:43:42;;;;;;;16.23;8.40;;;;;;;;;;10070103;28;20053;-66
2023/03/04 11:48:57;;;;;;;10.93;8.90;;;;;;;;;;10067497;28;20057;-66
2023/03/04 11:54:16;;;;;;;14.95;8.93;;;;;;;;;;10069467;28;20025;-66
2023/03/04 11:59:12;;;;;;;10.52;8.48;;;;;;;;;;10067260;28;20060;-66
2023/03/04 12:04:26;;;;;;;11.20;8.55;;;;;;;;;;10068020;28;20077;-65
2023/03/04 12:09:28;;;;;;;12.88;9.07;;;;;;;;;;10066763;28;20045;-66
2023/03/04 12:14:29;;;;;;;14.10;9.10;;;;;;;;;;10059316;28;20045;-66
2023/03/04 12:19:45;;;;;;;11.20;8.82;;;;;;;;;;10067857;28;20046;-66
2023/03/04 12:24:53;;;;;;;12.77;9.38;;;;;;;;;;10067083;28;20100;-66
2023/03/04 12:30:10;;;;;;;17.02;9.23;;;;;;;;;;10067835;28;20503;-66
2023/03/04 12:35:16;;;;;;;13.52;8.75;;;;;;;;;;10067711;28;20111;-68
2023/03/04 12:40:34;;;;;;;10.80;9.13;;;;;;;;;;10065090;28;20450;-65
2023/03/04 12:45:45;;;;;;;14.15;9.60;;;;;;;;;;10061934;28;20045;-65
2023/03/04 12:51:00;;;;;;;19.10;10.00;;;;;;;;;;10058142;28;20532;-65
2023/03/04 12:56:00;;;;;;;13.75;10.48;;;;;;;;;;10047184;28;20558;-63
2023/03/04 13:01:14;;;;;;;18.85;12.43;;;;;;;;;;10057477;28;20129;-67
2023/03/04 13:06:07;;;;;;;20.90;10.60;;;;;;;;;;10063849;28;20389;-66
2023/03/04 13:11:02;;;;;;;13.95;11.60;;;;;;;;;;10064413;28;20099;-66
2023/03/04 13:16:36;;;;;;;15.23;10.60;;;;;;;;;;10057515;28;20112;-67
2023/03/04 13:21:45;;;;;;;16.25;11.55;;;;;;;;;;10062028;28;20424;-67
2023/03/04 13:26:39;;;;;;;14.02;11.35;;;;;;;;;;10060095;28;20072;-67
2023/03/04 13:31:32;;;;;;;14.50;11.80;;;;;;;;;;10066469;28;20049;-66
2023/03/04 13:36:30;;;;;;;16.60;11.82;;;;;;;;;;10064101;28;20056;-66
2023/03/04 13:41:24;;;;;;;17.55;11.10;;;;;;;;;;10059155;28;20049;-64
2023/03/04 13:46:20;;;;;;;17.05;12.27;;;;;;;;;;10064053;28;20053;-65
2023/03/04 13:51:26;;;;;;;19.20;13.18;;;;;;;;;;10066320;28;20049;-64
2023/03/04 13:56:38;;;;;;;16.73;12.50;;;;;;;;;;10065329;28;20091;-64
2023/03/04 14:01:34;;;;;;;17.55;11.98;;;;;;;;;;10058184;28;20046;-65
2023/03/04 14:06:29;;;;;;;17.08;13.77;;;;;;;;;;10064634;28;20112;-63
2023/03/04 14:11:37;;;;;;;18.50;13.35;;;;;;;;;;10064846;28;20069;-64
2023/03/04 14:16:31;;;;;;;20.05;12.80;;;;;;;;;;10052718;28;20057;-64
2023/03/04 14:21:25;;;;;;;18.88;12.75;;;;;;;;;;10053369;28;20057;-65
2023/03/04 14:26:18;;;;;;;15.65;11.20;;;;;;;;;;10058850;28;20128;-65
2023/03/04 14:31:16;;;;;;;17.88;12.38;;;;;;;;;;10063505;28;20053;-66
2023/03/04 14:36:16;;;;;;;18.70;13.52;;;;;;;;;;10058628;28;20053;-66
2023/03/04 14:41:39;;;;;;;16.30;12.20;;;;;;;;;;10060277;28;20461;-66
2023/03/04 14:46:39;;;;;;;15.35;11.15;;;;;;;;;;10034103;28;20389;-66
2023/03/04 14:51:44;;;;;;;17.88;11.90;;;;;;;;;;10063095;28;20069;-66
2023/03/04 14:56:42;;;;;;;17.48;12.93;;;;;;;;;;10057314;28;20042;-66
2023/03/04 15:01:37;;;;;;;20.35;12.95;;;;;;;;;;10062023;28;20041;-66
2023/03/04 15:06:33;;;;;;;16.00;11.88;;;;;;;;;;10055214;28;20140;-65
2023/03/04 15:11:28;;;;;;;15.70;11.45;;;;;;;;;;10056167;28;20058;-66
2023/03/04 15:16:24;;;;;;;14.30;11.68;;;;;;;;;;10048713;28;20053;-65
2023/03/04 15:21:20;;;;;;;16.20;10.30;;;;;;;;;;10056889;28;20508;-65
2023/03/04 15:26:12;;;;;;;19.75;11.48;;;;;;;;;;10054877;28;20631;-65
2023/03/04 15:31:14;;;;;;;15.75;10.63;;;;;;;;;;10053012;28;20409;-65
2023/03/04 15:36:12;;;;;;;13.18;9.95;;;;;;;;;;10053344;28;20085;-67
2023/03/04 15:41:05;;;;;;;14.60;9.73;;;;;;;;;;10056402;28;20058;-67
2023/03/04 15:45:58;;;;;;;18.48;10.45;;;;;;;;;;10042711;28;20092;-66
2023/03/04 15:50:57;;;;;;;17.55;9.70;;;;;;;;;;10052687;28;20572;-68
2023/03/04 15:55:50;;;;;;;18.40;10.38;;;;;;;;;;10054688;28;20053;-67
2023/03/04 16:00:43;;;;;;;13.98;8.13;;;;;;;;;;10051421;28;20061;-68
2023/03/04 16:05:37;;;;;;;10.00;8.65;;;;;;;;;;10045059;28;20540;-66
2023/03/04 16:10:31;;;;;;;13.07;7.45;;;;;;;;;;10050295;28;20049;-66
2023/03/04 16:15:27;;;;;;;16.17;9.48;;;;;;;;;;10049963;28;20128;-66
2023/03/04 16:20:22;;;;;;;16.67;10.32;;;;;;;;;;10049268;28;20091;-66
2023/03/04 16:25:16;;;;;;;14.40;7.75;;;;;;;;;;10055076;28;20137;-66
2023/03/04 16:30:28;;;;;;;12.57;8.63;;;;;;;;;;10057267;28;20042;-66
2023/03/04 16:35:26;;;;;;;15.02;8.82;;;;;;;;;;10057408;28;20057;-67
2023/03/04 16:40:36;;;;;;;18.08;9.10;;;;;;;;;;10058752;28;20067;-67
2023/03/04 16:45:29;;;;;;;20.38;9.40;;;;;;;;;;10057783;28;20069;-67
2023/03/04 16:50:26;;;;;;;20.60;10.00;;;;;;;;;;10056273;28;20064;-67
2023/03/04 16:55:25;;;;;;;13.85;8.85;;;;;;;;;;10065279;28;20390;-67
2023/03/04 17:00:20;;;;;;;13.82;9.85;;;;;;;;;;10066649;28;20116;-67
2023/03/04 17:05:17;;;;;;;13.43;10.82;;;;;;;;;;10065916;28;20397;-67
2023/03/04 17:10:11;;;;;;;17.42;10.93;;;;;;;;;;10066710;28;20081;-67
2023/03/04 17:15:03;;;;;;;19.45;11.57;;;;;;;;;;10066167;28;20470;-66
2023/03/04 17:19:56;;;;;;;16.75;11.48;;;;;;;;;;10064985;28;20046;-66
2023/03/04 17:24:49;;;;;;;20.45;13.45;;;;;;;;;;10067097;28;20485;-67
2023/03/04 17:29:42;;;;;;;19.35;13.32;;;;;;;;;;10055614;28;20038;-67
2023/03/04 17:34:35;;;;;;;18.33;13.55;;;;;;;;;;10053724;28;20053;-67
2023/03/04 17:39:29;;;;;;;21.25;14.50;;;;;;;;;;10045306;28;20465;-67
2023/03/04 17:44:21;;;;;;;20.30;14.10;;;;;;;;;;10065971;28;20099;-67
2023/03/04 17:49:15;;;;;;;20.02;13.93;;;;;;;;;;10055569;28;20060;-67
2023/03/04 17:54:08;;;;;;;24.63;16.90;;;;;;;;;;10055601;28;20063;-67
2023/03/04 17:59:05;;;;;;;18.70;14.63;;;;;;;;;;10065545;28;20505;-66
2023/03/04 18:03:58;;;;;;;21.73;14.85;;;;;;;;;;10065200;28;20576;-67
2023/03/04 18:08:52;;;;;;;26.20;15.70;;;;;;;;;;10064210;28;20116;-66
2023/03/04 18:13:45;;;;;;;23.75;15.32;;;;;;;;;;10064690;28;20045;-66
2023/03/04 18:18:37;;;;;;;25.08;16.02;;;;;;;;;;10061297;28;20547;-66
2023/03/04 18:23:31;;;;;;;27.38;19.20;;;;;;;;;;10063308;28;20077;-66
2023/03/04 18:28:24;;;;;;;38.20;20.35;;;;;;;;;;10064677;28;20041;-66
2023/03/04 18:33:18;;;;;;;29.83;21.25;;;;;;;;;;10064251;28;20053;-66
2023/03/04 18:38:12;;;;;;;41.55;23.70;;;;;;;;;;10064830;28;20045;-65
2023/03/04 18:43:07;;;;;;;39.88;23.60;;;;;;;;;;10058612;28;20493;-69
2023/03/04 18:48:00;;;;;;;45.88;26.17;;;;;;;;;;10047868;28;20077;-74
2023/03/04 18:52:54;;;;;;;35.35;25.40;;;;;;;;;;10049821;28;20563;-73
2023/03/04 18:57:49;;;;;;;40.72;27.30;;;;;;;;;;10049920;28;20096;-73
2023/03/04 19:02:46;;;;;;;37.05;25.52;;;;;;;;;;10042558;28;20049;-73
2023/03/04 19:07:41;;;;;;;38.53;25.05;;;;;;;;;;10051536;28;20544;-72
2023/03/04 19:12:34;;;;;;;24.75;20.65;;;;;;;;;;10058944;28;20132;-72
2023/03/04 19:17:31;;;;;;;25.58;19.50;;;;;;;;;;10064895;28;20061;-70
2023/03/04 19:22:25;;;;;;;29.13;17.92;;;;;;;;;;10061637;28;20115;-74
2023/03/04 19:27:19;;;;;;;27.80;16.27;;;;;;;;;;10066475;28;20077;-73
2023/03/04 19:32:12;;;;;;;22.48;16.90;;;;;;;;;;10060267;28;20057;-72
2023/03/04 19:37:07;;;;;;;29.42;18.48;;;;;;;;;;10058745;28;20046;-72
2023/03/04 19:41:59;;;;;;;24.75;18.05;;;;;;;;;;10055258;28;20140;-71
2023/03/04 19:46:54;;;;;;;22.35;16.85;;;;;;;;;;10054232;28;20087;-71
2023/03/04 19:51:48;;;;;;;32.10;20.80;;;;;;;;;;10053792;28;20049;-72
2023/03/04 19:56:41;;;;;;;36.03;23.58;;;;;;;;;;10051328;28;20523;-72
2023/03/04 20:01:35;;;;;;;33.03;24.10;;;;;;;;;;10061425;28;20080;-75
2023/03/04 20:06:29;;;;;;;32.47;20.00;;;;;;;;;;10058943;28;20480;-75
2023/03/04 20:11:22;;;;;;;30.58;18.98;;;;;;;;;;10064594;28;20135;-73
2023/03/04 20:16:17;;;;;;;25.90;19.52;;;;;;;;;;10064352;28;20053;-78
2023/03/04 20:21:12;;;;;;;46.13;26.02;;;;;;;;;;10062148;28;20595;-74
2023/03/04 20:26:05;;;;;;;31.70;24.77;;;;;;;;;;10062879;28;20049;-76
2023/03/04 20:31:26;;;;;;;42.58;30.15;;;;;;;;;;10055234;28;20050;-73
2023/03/04 20:36:21;;;;;;;32.47;27.45;;;;;;;;;;10060421;28;20389;-72
2023/03/04 20:41:15;;;;;;;27.38;22.83;;;;;;;;;;10054143;28;20045;-75
2023/03/04 20:46:32;;;;;;;29.42;23.52;;;;;;;;;;10054567;28;20140;-76
2023/03/04 20:51:25;;;;;;;26.25;21.38;;;;;;;;;;10053974;28;20054;-74
2023/03/04 20:56:18;;;;;;;24.77;18.85;;;;;;;;;;10055131;28;20053;-74
2023/03/04 21:01:31;;;;;;;23.92;18.33;;;;;;;;;;10060470;28;20076;-74
2023/03/04 21:06:28;;;;;;;27.05;19.15;;;;;;;;;;10060096;28;20079;-74
2023/03/04 21:11:24;;;;;;;23.73;17.50;;;;;;;;;;10059297;28;20472;-74
2023/03/04 21:16:18;;;;;;;28.48;17.95;;;;;;;;;;10051706;28;20042;-72
2023/03/04 21:21:22;;;;;;;24.95;16.15;;;;;;;;;;10060055;28;20053;-73
2023/03/04 21:26:17;;;;;;;17.85;13.57;;;;;;;;;;10056529;28;20049;-73
2023/03/04 21:31:18;;;;;;;19.38;12.65;;;;;;;;;;10044040;28;20093;-73
2023/03/04 21:36:20;;;;;;;24.98;14.27;;;;;;;;;;10065162;28;20531;-73
2023/03/04 21:41:34;;;;;;;17.67;13.43;;;;;;;;;;10066084;28;20485;-72
2023/03/04 21:46:27;;;;;;;20.63;14.10;;;;;;;;;;10052961;28;20054;-73
2023/03/04 21:51:21;;;;;;;23.08;14.95;;;;;;;;;;10061624;28;20136;-73
2023/03/04 21:56:15;;;;;;;22.33;15.48;;;;;;;;;;10061752;28;20041;-73
2023/03/04 22:01:11;;;;;;;20.60;16.30;;;;;;;;;;10063225;28;20041;-74
2023/03/04 22:06:05;;;;;;;19.25;12.48;;;;;;;;;;10065863;28;20068;-73
2023/03/04 22:11:03;;;;;;;22.77;13.25;;;;;;;;;;10065175;28;20056;-73
2023/03/04 22:15:57;;;;;;;19.50;14.00;;;;;;;;;;10064906;28;20057;-73
2023/03/04 22:20:52;;;;;;;17.92;13.85;;;;;;;;;;10065860;28;20053;-73
2023/03/04 22:25:45;;;;;;;16.58;13.18;;;;;;;;;;10064882;28;20041;-73
2023/03/04 22:30:38;;;;;;;22.15;12.70;;;;;;;;;;10063427;28;20076;-73
2023/03/04 22:35:33;;;;;;;24.02;13.27;;;;;;;;;;10066040;28;20476;-73
2023/03/04 22:40:26;;;;;;;18.73;13.77;;;;;;;;;;10064617;28;20048;-73
2023/03/04 22:45:20;;;;;;;18.90;13.52;;;;;;;;;;10064684;28;20077;-73
2023/03/04 22:50:13;;;;;;;17.67;13.18;;;;;;;;;;10070411;28;20067;-73
2023/03/04 22:55:10;;;;;;;27.95;17.40;;;;;;;;;;10072169;28;20049;-73
2023/03/04 23:00:14;;;;;;;20.65;14.00;;;;;;;;;;10072014;28;20504;-73
2023/03/04 23:05:08;;;;;;;21.88;15.07;;;;;;;;;;10071426;28;20512;-73
2023/03/04 23:10:03;;;;;;;19.15;13.93;;;;;;;;;;10071310;28;20077;-73
2023/03/04 23:14:56;;;;;;;25.52;15.85;;;;;;;;;;10071091;28;20546;-73
2023/03/04 23:19:50;;;;;;;16.52;14.32;;;;;;;;;;10069649;28;20061;-73
2023/03/04 23:24:42;;;;;;;17.08;13.52;;;;;;;;;;10070504;28;20453;-74
2023/03/04 23:29:36;;;;;;;24.60;12.48;;;;;;;;;;10070613;28;20053;-74
2023/03/04 23:34:30;;;;;;;16.73;11.55;;;;;;;;;;10071073;28;20481;-74
2023/03/04 23:39:23;;;;;;;18.95;11.93;;;;;;;;;;10070434;28;20064;-73
2023/03/04 23:44:16;;;;;;;16.13;11.25;;;;;;;;;;10070261;28;20041;-74
2023/03/04 23:49:12;;;;;;;15.80;11.68;;;;;;;;;;10069611;28;20530;-73
2023/03/04 23:54:06;;;;;;;26.92;11.55;;;;;;;;;;10070045;28;20073;-75
2023/03/04 23:58:59;;;;;;;25.35;11.35;;;;;;;;;;10069618;28;20124;-75
